sensor_id;sensor_type;location;lat;lon;timestamp;P1;durP1;ratioP1;P2;durP2;ratioP2
6163;SDS011;3114;48.362;10.994;2022-09-01T00:01:26;11.88;;;9.48;;
6163;SDS011;3114;48.362;10.994;2022-09-01T00:03:54;10.90;;;9.75;;
6163;SDS011;3114;48.362;10.994;2022-09-01T00:06:27;12.55;;;9.77;;
6163;SDS011;3114;48.362;10.994;2022-09-01T00:08:56;10.55;;;9.45;;
6163;SDS011;3114;48.362;10.994;2022-09-01T00:11:24;11.02;;;9.82;;
6163;SDS011;3114;48.362;10.994;2022-09-01T00:13:53;14.00;;;9.40;;
6163;SDS011;3114;48.362;10.994;2022-09-01T00:16:22;10.48;;;9.38;;
6163;SDS011;3114;48.362;10.994;2022-09-01T00:18:51;13.00;;;10.27;;
6163;SDS011;3114;48.362;10.994;2022-09-01T00:21:20;12.02;;;9.90;;
6163;SDS011;3114;48.362;10.994;2022-09-01T00:23:49;13.52;;;9.68;;
6163;SDS011;3114;48.362;10.994;2022-09-01T00:26:16;10.55;;;9.45;;
6163;SDS011;3114;48.362;10.994;2022-09-01T00:28:43;13.13;;;10.88;;
6163;SDS011;3114;48.362;10.994;2022-09-01T00:31:10;11.77;;;9.80;;
6163;SDS011;3114;48.362;10.994;2022-09-01T00:33:40;15.90;;;10.93;;
6163;SDS011;3114;48.362;10.994;2022-09-01T00:36:07;12.43;;;11.05;;
6163;SDS011;3114;48.362;10.994;2022-09-01T00:38:34;12.98;;;10.57;;
6163;SDS011;3114;48.362;10.994;2022-09-01T00:41:02;12.88;;;11.05;;
6163;SDS011;3114;48.362;10.994;2022-09-01T00:43:36;10.98;;;9.95;;
6163;SDS011;3114;48.362;10.994;2022-09-01T00:46:08;12.30;;;10.93;;
6163;SDS011;3114;48.362;10.994;2022-09-01T00:48:37;13.30;;;11.15;;
6163;SDS011;3114;48.362;10.994;2022-09-01T00:51:06;13.32;;;10.98;;
6163;SDS011;3114;48.362;10.994;2022-09-01T00:53:34;11.10;;;10.00;;
6163;SDS011;3114;48.362;10.994;2022-09-01T00:56:03;13.65;;;10.30;;
6163;SDS011;3114;48.362;10.994;2022-09-01T00:58:32;13.00;;;10.40;;
6163;SDS011;3114;48.362;10.994;2022-09-01T01:01:00;12.68;;;10.60;;
6163;SDS011;3114;48.362;10.994;2022-09-01T01:03:27;15.55;;;10.45;;
6163;SDS011;3114;48.362;10.994;2022-09-01T01:05:56;12.27;;;10.63;;
6163;SDS011;3114;48.362;10.994;2022-09-01T01:08:27;12.52;;;10.63;;
6163;SDS011;3114;48.362;10.994;2022-09-01T01:10:58;13.27;;;11.00;;
6163;SDS011;3114;48.362;10.994;2022-09-01T01:13:45;12.32;;;10.80;;
6163;SDS011;3114;48.362;10.994;2022-09-01T01:16:15;13.85;;;10.90;;
6163;SDS011;3114;48.362;10.994;2022-09-01T01:18:42;14.00;;;11.18;;
6163;SDS011;3114;48.362;10.994;2022-09-01T01:21:12;12.68;;;11.05;;
6163;SDS011;3114;48.362;10.994;2022-09-01T01:24:01;13.07;;;10.48;;
6163;SDS011;3114;48.362;10.994;2022-09-01T01:26:37;10.98;;;9.77;;
6163;SDS011;3114;48.362;10.994;2022-09-01T01:29:04;12.15;;;10.73;;
6163;SDS011;3114;48.362;10.994;2022-09-01T01:31:33;12.75;;;11.35;;
6163;SDS011;3114;48.362;10.994;2022-09-01T01:34:00;13.13;;;10.52;;
6163;SDS011;3114;48.362;10.994;2022-09-01T01:36:30;11.93;;;10.65;;
6163;SDS011;3114;48.362;10.994;2022-09-01T01:39:00;12.65;;;11.35;;
6163;SDS011;3114;48.362;10.994;2022-09-01T01:41:30;16.40;;;11.57;;
6163;SDS011;3114;48.362;10.994;2022-09-01T01:43:59;13.35;;;11.60;;
6163;SDS011;3114;48.362;10.994;2022-09-01T01:46:29;14.30;;;11.60;;
6163;SDS011;3114;48.362;10.994;2022-09-01T01:48:57;13.65;;;11.95;;
6163;SDS011;3114;48.362;10.994;2022-09-01T01:51:26;14.23;;;11.85;;
6163;SDS011;3114;48.362;10.994;2022-09-01T01:53:55;13.57;;;12.18;;
6163;SDS011;3114;48.362;10.994;2022-09-01T01:56:24;14.68;;;12.10;;
6163;SDS011;3114;48.362;10.994;2022-09-01T01:58:52;13.07;;;11.55;;
6163;SDS011;3114;48.362;10.994;2022-09-01T02:01:22;13.07;;;11.55;;
6163;SDS011;3114;48.362;10.994;2022-09-01T02:03:49;13.70;;;12.30;;
6163;SDS011;3114;48.362;10.994;2022-09-01T02:06:19;13.32;;;11.95;;
6163;SDS011;3114;48.362;10.994;2022-09-01T02:08:49;13.68;;;12.27;;
6163;SDS011;3114;48.362;10.994;2022-09-01T02:11:16;15.20;;;12.73;;
6163;SDS011;3114;48.362;10.994;2022-09-01T02:13:45;13.63;;;12.18;;
6163;SDS011;3114;48.362;10.994;2022-09-01T02:16:13;14.88;;;12.30;;
6163;SDS011;3114;48.362;10.994;2022-09-01T02:18:43;14.00;;;12.48;;
6163;SDS011;3114;48.362;10.994;2022-09-01T02:21:13;13.57;;;12.18;;
6163;SDS011;3114;48.362;10.994;2022-09-01T02:23:44;13.77;;;12.35;;
6163;SDS011;3114;48.362;10.994;2022-09-01T02:26:12;13.43;;;12.07;;
6163;SDS011;3114;48.362;10.994;2022-09-01T02:28:40;15.13;;;12.85;;
6163;SDS011;3114;48.362;10.994;2022-09-01T02:31:09;14.20;;;12.70;;
6163;SDS011;3114;48.362;10.994;2022-09-01T02:33:37;14.82;;;12.25;;
6163;SDS011;3114;48.362;10.994;2022-09-01T02:36:10;16.17;;;12.57;;
6163;SDS011;3114;48.362;10.994;2022-09-01T02:38:39;15.13;;;12.90;;
6163;SDS011;3114;48.362;10.994;2022-09-01T02:41:10;15.65;;;12.93;;
6163;SDS011;3114;48.362;10.994;2022-09-01T02:43:38;17.60;;;14.05;;
6163;SDS011;3114;48.362;10.994;2022-09-01T02:46:07;15.00;;;13.27;;
6163;SDS011;3114;48.362;10.994;2022-09-01T02:48:35;14.38;;;12.88;;
6163;SDS011;3114;48.362;10.994;2022-09-01T02:51:04;13.65;;;12.15;;
6163;SDS011;3114;48.362;10.994;2022-09-01T02:53:34;14.57;;;13.00;;
6163;SDS011;3114;48.362;10.994;2022-09-01T02:56:04;13.27;;;11.95;;
6163;SDS011;3114;48.362;10.994;2022-09-01T02:58:38;14.25;;;12.63;;
6163;SDS011;3114;48.362;10.994;2022-09-01T03:01:10;15.85;;;13.25;;
6163;SDS011;3114;48.362;10.994;2022-09-01T03:03:38;14.27;;;12.85;;
6163;SDS011;3114;48.362;10.994;2022-09-01T03:06:05;14.02;;;12.63;;
6163;SDS011;3114;48.362;10.994;2022-09-01T03:08:35;14.57;;;13.00;;
6163;SDS011;3114;48.362;10.994;2022-09-01T03:11:04;22.63;;;20.42;;
6163;SDS011;3114;48.362;10.994;2022-09-01T03:13:34;13.93;;;12.50;;
6163;SDS011;3114;48.362;10.994;2022-09-01T03:16:06;13.60;;;12.18;;
6163;SDS011;3114;48.362;10.994;2022-09-01T03:18:33;15.18;;;12.25;;
6163;SDS011;3114;48.362;10.994;2022-09-01T03:21:00;14.60;;;11.75;;
6163;SDS011;3114;48.362;10.994;2022-09-01T03:23:28;13.45;;;12.05;;
6163;SDS011;3114;48.362;10.994;2022-09-01T03:25:58;14.05;;;12.55;;
6163;SDS011;3114;48.362;10.994;2022-09-01T03:28:26;14.00;;;12.45;;
6163;SDS011;3114;48.362;10.994;2022-09-01T03:30:54;13.18;;;11.80;;
6163;SDS011;3114;48.362;10.994;2022-09-01T03:33:23;13.73;;;12.32;;
6163;SDS011;3114;48.362;10.994;2022-09-01T03:35:52;16.00;;;12.20;;
6163;SDS011;3114;48.362;10.994;2022-09-01T03:38:20;15.98;;;13.20;;
6163;SDS011;3114;48.362;10.994;2022-09-01T03:40:48;17.33;;;12.32;;
6163;SDS011;3114;48.362;10.994;2022-09-01T03:43:18;16.05;;;12.93;;
6163;SDS011;3114;48.362;10.994;2022-09-01T03:45:49;16.40;;;12.70;;
6163;SDS011;3114;48.362;10.994;2022-09-01T03:48:16;13.68;;;12.25;;
6163;SDS011;3114;48.362;10.994;2022-09-01T03:50:43;17.67;;;12.70;;
6163;SDS011;3114;48.362;10.994;2022-09-01T03:53:11;15.40;;;12.52;;
6163;SDS011;3114;48.362;10.994;2022-09-01T03:55:42;14.82;;;12.95;;
6163;SDS011;3114;48.362;10.994;2022-09-01T03:58:11;14.10;;;12.60;;
6163;SDS011;3114;48.362;10.994;2022-09-01T04:00:46;16.70;;;13.77;;
6163;SDS011;3114;48.362;10.994;2022-09-01T04:03:16;14.68;;;12.95;;
6163;SDS011;3114;48.362;10.994;2022-09-01T04:05:46;15.35;;;12.93;;
6163;SDS011;3114;48.362;10.994;2022-09-01T04:08:15;16.20;;;13.02;;
6163;SDS011;3114;48.362;10.994;2022-09-01T04:10:44;15.70;;;13.23;;
6163;SDS011;3114;48.362;10.994;2022-09-01T04:13:14;14.27;;;12.77;;
6163;SDS011;3114;48.362;10.994;2022-09-01T04:15:43;14.95;;;13.35;;
6163;SDS011;3114;48.362;10.994;2022-09-01T04:18:10;19.05;;;17.17;;
6163;SDS011;3114;48.362;10.994;2022-09-01T04:20:45;15.48;;;13.70;;
6163;SDS011;3114;48.362;10.994;2022-09-01T04:23:16;15.00;;;13.38;;
6163;SDS011;3114;48.362;10.994;2022-09-01T04:25:50;14.70;;;13.13;;
6163;SDS011;3114;48.362;10.994;2022-09-01T04:28:19;14.80;;;13.18;;
6163;SDS011;3114;48.362;10.994;2022-09-01T04:30:55;16.35;;;13.40;;
6163;SDS011;3114;48.362;10.994;2022-09-01T04:33:23;14.63;;;13.07;;
6163;SDS011;3114;48.362;10.994;2022-09-01T04:35:52;16.67;;;13.18;;
6163;SDS011;3114;48.362;10.994;2022-09-01T04:38:21;15.00;;;13.40;;
6163;SDS011;3114;48.362;10.994;2022-09-01T04:40:49;15.82;;;13.65;;
6163;SDS011;3114;48.362;10.994;2022-09-01T04:43:17;16.13;;;13.68;;
6163;SDS011;3114;48.362;10.994;2022-09-01T04:45:45;17.25;;;13.70;;
6163;SDS011;3114;48.362;10.994;2022-09-01T04:48:17;15.02;;;13.05;;
6163;SDS011;3114;48.362;10.994;2022-09-01T04:50:46;15.27;;;13.68;;
6163;SDS011;3114;48.362;10.994;2022-09-01T04:53:16;16.92;;;13.30;;
6163;SDS011;3114;48.362;10.994;2022-09-01T04:55:44;15.45;;;13.85;;
6163;SDS011;3114;48.362;10.994;2022-09-01T04:58:13;16.48;;;13.80;;
6163;SDS011;3114;48.362;10.994;2022-09-01T05:00:42;18.13;;;14.57;;
6163;SDS011;3114;48.362;10.994;2022-09-01T05:03:12;16.30;;;14.52;;
6163;SDS011;3114;48.362;10.994;2022-09-01T05:05:41;16.67;;;14.63;;
6163;SDS011;3114;48.362;10.994;2022-09-01T05:08:12;16.63;;;14.75;;
6163;SDS011;3114;48.362;10.994;2022-09-01T05:10:43;15.85;;;13.95;;
6163;SDS011;3114;48.362;10.994;2022-09-01T05:13:12;18.00;;;14.70;;
6163;SDS011;3114;48.362;10.994;2022-09-01T05:15:41;17.15;;;15.35;;
6163;SDS011;3114;48.362;10.994;2022-09-01T05:18:12;17.75;;;14.95;;
6163;SDS011;3114;48.362;10.994;2022-09-01T05:20:41;16.23;;;14.55;;
6163;SDS011;3114;48.362;10.994;2022-09-01T05:23:09;17.20;;;14.25;;
6163;SDS011;3114;48.362;10.994;2022-09-01T05:25:39;16.42;;;14.70;;
6163;SDS011;3114;48.362;10.994;2022-09-01T05:28:08;15.95;;;14.25;;
6163;SDS011;3114;48.362;10.994;2022-09-01T05:30:38;16.67;;;14.20;;
6163;SDS011;3114;48.362;10.994;2022-09-01T05:33:07;15.50;;;13.90;;
6163;SDS011;3114;48.362;10.994;2022-09-01T05:35:35;15.45;;;13.85;;
6163;SDS011;3114;48.362;10.994;2022-09-01T05:38:06;16.55;;;14.65;;
6163;SDS011;3114;48.362;10.994;2022-09-01T05:40:37;19.98;;;14.00;;
6163;SDS011;3114;48.362;10.994;2022-09-01T05:43:05;16.48;;;14.30;;
6163;SDS011;3114;48.362;10.994;2022-09-01T05:45:37;17.40;;;14.23;;
6163;SDS011;3114;48.362;10.994;2022-09-01T05:48:08;14.50;;;13.00;;
6163;SDS011;3114;48.362;10.994;2022-09-01T05:50:38;14.95;;;13.13;;
6163;SDS011;3114;48.362;10.994;2022-09-01T05:53:08;15.02;;;13.43;;
6163;SDS011;3114;48.362;10.994;2022-09-01T05:55:40;15.43;;;13.82;;
6163;SDS011;3114;48.362;10.994;2022-09-01T05:58:07;16.63;;;13.55;;
6163;SDS011;3114;48.362;10.994;2022-09-01T06:00:37;16.27;;;14.30;;
6163;SDS011;3114;48.362;10.994;2022-09-01T06:03:05;21.02;;;19.23;;
6163;SDS011;3114;48.362;10.994;2022-09-01T06:05:33;22.10;;;20.15;;
6163;SDS011;3114;48.362;10.994;2022-09-01T06:08:01;20.67;;;18.77;;
6163;SDS011;3114;48.362;10.994;2022-09-01T06:10:31;21.27;;;19.13;;
6163;SDS011;3114;48.362;10.994;2022-09-01T06:13:01;19.70;;;17.88;;
6163;SDS011;3114;48.362;10.994;2022-09-01T06:15:30;17.95;;;16.30;;
6163;SDS011;3114;48.362;10.994;2022-09-01T06:17:57;19.40;;;17.65;;
6163;SDS011;3114;48.362;10.994;2022-09-01T06:20:24;20.33;;;18.52;;
6163;SDS011;3114;48.362;10.994;2022-09-01T06:22:51;18.33;;;16.63;;
6163;SDS011;3114;48.362;10.994;2022-09-01T06:25:18;18.08;;;16.45;;
6163;SDS011;3114;48.362;10.994;2022-09-01T06:27:47;16.80;;;15.20;;
6163;SDS011;3114;48.362;10.994;2022-09-01T06:30:14;17.77;;;16.27;;
6163;SDS011;3114;48.362;10.994;2022-09-01T06:32:44;18.73;;;16.95;;
6163;SDS011;3114;48.362;10.994;2022-09-01T06:35:14;112.95;;;88.00;;
6163;SDS011;3114;48.362;10.994;2022-09-01T06:37:42;59.92;;;51.13;;
6163;SDS011;3114;48.362;10.994;2022-09-01T06:40:10;23.25;;;21.10;;
6163;SDS011;3114;48.362;10.994;2022-09-01T06:42:41;18.40;;;16.70;;
6163;SDS011;3114;48.362;10.994;2022-09-01T06:45:12;18.02;;;16.30;;
6163;SDS011;3114;48.362;10.994;2022-09-01T06:47:40;18.52;;;16.77;;
6163;SDS011;3114;48.362;10.994;2022-09-01T06:50:09;19.35;;;17.63;;
6163;SDS011;3114;48.362;10.994;2022-09-01T06:52:38;17.35;;;15.85;;
6163;SDS011;3114;48.362;10.994;2022-09-01T06:55:06;18.27;;;16.73;;
6163;SDS011;3114;48.362;10.994;2022-09-01T06:57:34;20.05;;;18.35;;
6163;SDS011;3114;48.362;10.994;2022-09-01T07:00:03;17.63;;;15.93;;
6163;SDS011;3114;48.362;10.994;2022-09-01T07:02:42;18.52;;;16.95;;
6163;SDS011;3114;48.362;10.994;2022-09-01T07:05:10;25.00;;;22.85;;
6163;SDS011;3114;48.362;10.994;2022-09-01T07:07:41;21.05;;;19.25;;
6163;SDS011;3114;48.362;10.994;2022-09-01T07:10:15;19.20;;;17.70;;
6163;SDS011;3114;48.362;10.994;2022-09-01T07:12:46;19.08;;;17.58;;
6163;SDS011;3114;48.362;10.994;2022-09-01T07:15:14;20.42;;;18.60;;
6163;SDS011;3114;48.362;10.994;2022-09-01T07:17:47;21.77;;;19.98;;
6163;SDS011;3114;48.362;10.994;2022-09-01T07:20:16;23.00;;;21.20;;
6163;SDS011;3114;48.362;10.994;2022-09-01T07:22:45;21.80;;;20.30;;
6163;SDS011;3114;48.362;10.994;2022-09-01T07:25:12;17.58;;;16.35;;
6163;SDS011;3114;48.362;10.994;2022-09-01T07:27:40;13.30;;;12.30;;
6163;SDS011;3114;48.362;10.994;2022-09-01T07:30:09;12.60;;;11.70;;
6163;SDS011;3114;48.362;10.994;2022-09-01T07:32:36;13.38;;;12.27;;
6163;SDS011;3114;48.362;10.994;2022-09-01T07:35:09;14.50;;;13.02;;
6163;SDS011;3114;48.362;10.994;2022-09-01T07:37:36;12.52;;;11.43;;
6163;SDS011;3114;48.362;10.994;2022-09-01T07:40:04;14.40;;;13.00;;
6163;SDS011;3114;48.362;10.994;2022-09-01T07:42:34;13.10;;;11.90;;
6163;SDS011;3114;48.362;10.994;2022-09-01T07:45:03;14.45;;;13.25;;
6163;SDS011;3114;48.362;10.994;2022-09-01T07:47:34;14.55;;;13.25;;
6163;SDS011;3114;48.362;10.994;2022-09-01T07:50:02;25.02;;;13.82;;
6163;SDS011;3114;48.362;10.994;2022-09-01T07:52:34;13.05;;;10.10;;
6163;SDS011;3114;48.362;10.994;2022-09-01T07:55:07;13.70;;;12.60;;
6163;SDS011;3114;48.362;10.994;2022-09-01T07:57:35;13.73;;;12.43;;
6163;SDS011;3114;48.362;10.994;2022-09-01T08:00:03;14.90;;;13.60;;
6163;SDS011;3114;48.362;10.994;2022-09-01T08:02:31;13.35;;;12.15;;
6163;SDS011;3114;48.362;10.994;2022-09-01T08:04:58;13.98;;;12.57;;
6163;SDS011;3114;48.362;10.994;2022-09-01T08:07:25;13.07;;;11.70;;
6163;SDS011;3114;48.362;10.994;2022-09-01T08:09:54;11.98;;;10.88;;
6163;SDS011;3114;48.362;10.994;2022-09-01T08:12:21;10.77;;;9.77;;
6163;SDS011;3114;48.362;10.994;2022-09-01T08:14:47;75.53;;;61.00;;
6163;SDS011;3114;48.362;10.994;2022-09-01T08:20:04;61.25;;;50.65;;
6163;SDS011;3114;48.362;10.994;2022-09-01T08:22:33;12.77;;;11.68;;
6163;SDS011;3114;48.362;10.994;2022-09-01T08:25:04;11.85;;;10.85;;
6163;SDS011;3114;48.362;10.994;2022-09-01T08:27:31;12.57;;;11.43;;
6163;SDS011;3114;48.362;10.994;2022-09-01T08:30:00;16.08;;;14.57;;
6163;SDS011;3114;48.362;10.994;2022-09-01T08:32:28;15.45;;;14.25;;
6163;SDS011;3114;48.362;10.994;2022-09-01T08:34:56;15.40;;;14.18;;
6163;SDS011;3114;48.362;10.994;2022-09-01T08:37:23;15.07;;;13.88;;
6163;SDS011;3114;48.362;10.994;2022-09-01T08:39:50;14.75;;;13.55;;
6163;SDS011;3114;48.362;10.994;2022-09-01T08:42:21;14.80;;;13.60;;
6163;SDS011;3114;48.362;10.994;2022-09-01T08:45:03;15.57;;;14.30;;
6163;SDS011;3114;48.362;10.994;2022-09-01T08:47:36;15.32;;;13.93;;
6163;SDS011;3114;48.362;10.994;2022-09-01T08:50:04;16.30;;;14.95;;
6163;SDS011;3114;48.362;10.994;2022-09-01T08:52:32;15.07;;;13.77;;
6163;SDS011;3114;48.362;10.994;2022-09-01T08:55:04;14.77;;;13.57;;
6163;SDS011;3114;48.362;10.994;2022-09-01T08:57:36;15.25;;;14.05;;
6163;SDS011;3114;48.362;10.994;2022-09-01T09:00:05;14.73;;;13.52;;
6163;SDS011;3114;48.362;10.994;2022-09-01T09:02:42;14.20;;;13.00;;
6163;SDS011;3114;48.362;10.994;2022-09-01T09:05:22;14.88;;;13.57;;
6163;SDS011;3114;48.362;10.994;2022-09-01T09:10:57;13.10;;;12.00;;
6163;SDS011;3114;48.362;10.994;2022-09-01T09:13:31;14.85;;;13.68;;
6163;SDS011;3114;48.362;10.994;2022-09-01T09:16:06;12.45;;;11.35;;
6163;SDS011;3114;48.362;10.994;2022-09-01T09:18:37;36.25;;;30.17;;
6163;SDS011;3114;48.362;10.994;2022-09-01T09:21:11;45.40;;;37.78;;
6163;SDS011;3114;48.362;10.994;2022-09-01T09:23:44;12.82;;;11.82;;
6163;SDS011;3114;48.362;10.994;2022-09-01T09:26:13;13.65;;;12.63;;
6163;SDS011;3114;48.362;10.994;2022-09-01T09:28:46;13.43;;;12.10;;
6163;SDS011;3114;48.362;10.994;2022-09-01T09:31:27;13.65;;;12.55;;
6163;SDS011;3114;48.362;10.994;2022-09-01T09:33:56;11.82;;;10.82;;
6163;SDS011;3114;48.362;10.994;2022-09-01T09:36:28;13.40;;;12.40;;
6163;SDS011;3114;48.362;10.994;2022-09-01T09:39:04;13.23;;;12.05;;
6163;SDS011;3114;48.362;10.994;2022-09-01T09:41:36;15.55;;;14.45;;
6163;SDS011;3114;48.362;10.994;2022-09-01T09:44:06;15.82;;;14.43;;
6163;SDS011;3114;48.362;10.994;2022-09-01T09:46:44;15.77;;;14.68;;
6163;SDS011;3114;48.362;10.994;2022-09-01T09:49:16;16.50;;;15.30;;
6163;SDS011;3114;48.362;10.994;2022-09-01T09:51:45;14.85;;;13.55;;
6163;SDS011;3114;48.362;10.994;2022-09-01T09:54:16;12.48;;;11.38;;
6163;SDS011;3114;48.362;10.994;2022-09-01T09:56:47;12.63;;;11.73;;
6163;SDS011;3114;48.362;10.994;2022-09-01T09:59:28;12.23;;;11.40;;
6163;SDS011;3114;48.362;10.994;2022-09-01T10:01:58;13.68;;;12.68;;
6163;SDS011;3114;48.362;10.994;2022-09-01T10:04:39;13.05;;;12.05;;
6163;SDS011;3114;48.362;10.994;2022-09-01T10:07:21;12.43;;;11.43;;
6163;SDS011;3114;48.362;10.994;2022-09-01T10:09:50;13.00;;;12.07;;
6163;SDS011;3114;48.362;10.994;2022-09-01T10:12:17;13.98;;;12.88;;
6163;SDS011;3114;48.362;10.994;2022-09-01T10:14:47;13.68;;;12.65;;
6163;SDS011;3114;48.362;10.994;2022-09-01T10:17:18;13.40;;;12.50;;
6163;SDS011;3114;48.362;10.994;2022-09-01T10:19:50;11.25;;;10.43;;
6163;SDS011;3114;48.362;10.994;2022-09-01T10:22:19;12.02;;;10.93;;
6163;SDS011;3114;48.362;10.994;2022-09-01T10:24:48;10.85;;;10.15;;
6163;SDS011;3114;48.362;10.994;2022-09-01T10:27:16;8.63;;;7.95;;
6163;SDS011;3114;48.362;10.994;2022-09-01T10:29:48;7.82;;;7.22;;
6163;SDS011;3114;48.362;10.994;2022-09-01T10:32:20;8.63;;;7.93;;
6163;SDS011;3114;48.362;10.994;2022-09-01T10:34:51;8.55;;;7.80;;
6163;SDS011;3114;48.362;10.994;2022-09-01T10:37:19;8.60;;;8.00;;
6163;SDS011;3114;48.362;10.994;2022-09-01T10:42:55;9.73;;;8.88;;
6163;SDS011;3114;48.362;10.994;2022-09-01T10:45:31;10.68;;;9.88;;
6163;SDS011;3114;48.362;10.994;2022-09-01T10:50:47;10.25;;;9.55;;
6163;SDS011;3114;48.362;10.994;2022-09-01T10:56:04;36.33;;;32.63;;
6163;SDS011;3114;48.362;10.994;2022-09-01T11:07:41;9.35;;;8.70;;
6163;SDS011;3114;48.362;10.994;2022-09-01T11:13:17;11.45;;;10.68;;
6163;SDS011;3114;48.362;10.994;2022-09-01T11:18:45;10.90;;;10.10;;
6163;SDS011;3114;48.362;10.994;2022-09-01T11:21:15;11.18;;;10.30;;
6163;SDS011;3114;48.362;10.994;2022-09-01T11:23:48;9.85;;;9.15;;
6163;SDS011;3114;48.362;10.994;2022-09-01T11:32:11;19.40;;;18.05;;
6163;SDS011;3114;48.362;10.994;2022-09-01T11:34:40;18.90;;;17.60;;
6163;SDS011;3114;48.362;10.994;2022-09-01T11:37:11;20.75;;;18.95;;
6163;SDS011;3114;48.362;10.994;2022-09-01T11:39:41;7.50;;;6.88;;
6163;SDS011;3114;48.362;10.994;2022-09-01T11:42:16;2.35;;;2.15;;
6163;SDS011;3114;48.362;10.994;2022-09-01T11:44:46;2.50;;;2.30;;
6163;SDS011;3114;48.362;10.994;2022-09-01T11:47:19;2.90;;;1.95;;
6163;SDS011;3114;48.362;10.994;2022-09-01T11:49:53;3.30;;;2.08;;
6163;SDS011;3114;48.362;10.994;2022-09-01T11:52:24;2.40;;;2.20;;
6163;SDS011;3114;48.362;10.994;2022-09-01T11:54:55;2.40;;;2.20;;
6163;SDS011;3114;48.362;10.994;2022-09-01T11:57:27;2.50;;;2.30;;
6163;SDS011;3114;48.362;10.994;2022-09-01T11:59:56;3.30;;;2.10;;
6163;SDS011;3114;48.362;10.994;2022-09-01T12:02:25;3.50;;;2.20;;
6163;SDS011;3114;48.362;10.994;2022-09-01T12:05:22;2.28;;;2.08;;
6163;SDS011;3114;48.362;10.994;2022-09-01T12:07:53;4.28;;;2.13;;
6163;SDS011;3114;48.362;10.994;2022-09-01T12:10:23;3.30;;;2.10;;
6163;SDS011;3114;48.362;10.994;2022-09-01T12:13:00;2.72;;;2.00;;
6163;SDS011;3114;48.362;10.994;2022-09-01T12:15:29;2.10;;;2.00;;
6163;SDS011;3114;48.362;10.994;2022-09-01T12:18:09;4.85;;;1.90;;
6163;SDS011;3114;48.362;10.994;2022-09-01T12:20:43;5.55;;;1.95;;
6163;SDS011;3114;48.362;10.994;2022-09-01T12:23:16;1.90;;;1.77;;
6163;SDS011;3114;48.362;10.994;2022-09-01T12:25:49;1.88;;;1.60;;
6163;SDS011;3114;48.362;10.994;2022-09-01T12:28:25;2.05;;;1.65;;
6163;SDS011;3114;48.362;10.994;2022-09-01T12:30:55;2.00;;;1.80;;
6163;SDS011;3114;48.362;10.994;2022-09-01T12:33:23;2.45;;;1.90;;
6163;SDS011;3114;48.362;10.994;2022-09-01T12:35:51;1.83;;;1.73;;
6163;SDS011;3114;48.362;10.994;2022-09-01T12:38:27;2.25;;;1.70;;
6163;SDS011;3114;48.362;10.994;2022-09-01T12:40:56;2.30;;;2.10;;
6163;SDS011;3114;48.362;10.994;2022-09-01T12:43:28;1.92;;;1.73;;
6163;SDS011;3114;48.362;10.994;2022-09-01T12:45:57;2.22;;;1.85;;
6163;SDS011;3114;48.362;10.994;2022-09-01T12:48:26;2.00;;;1.80;;
6163;SDS011;3114;48.362;10.994;2022-09-01T12:50:55;11.10;;;10.10;;
6163;SDS011;3114;48.362;10.994;2022-09-01T12:53:29;18.55;;;16.77;;
6163;SDS011;3114;48.362;10.994;2022-09-01T12:56:01;10.45;;;9.45;;
6163;SDS011;3114;48.362;10.994;2022-09-01T12:58:45;4.43;;;3.42;;
6163;SDS011;3114;48.362;10.994;2022-09-01T13:01:23;3.03;;;2.60;;
6163;SDS011;3114;48.362;10.994;2022-09-01T13:04:11;2.67;;;2.42;;
6163;SDS011;3114;48.362;10.994;2022-09-01T13:06:40;3.15;;;2.30;;
6163;SDS011;3114;48.362;10.994;2022-09-01T13:09:09;2.78;;;2.20;;
6163;SDS011;3114;48.362;10.994;2022-09-01T13:11:36;1.85;;;1.75;;
6163;SDS011;3114;48.362;10.994;2022-09-01T13:14:03;1.92;;;1.83;;
6163;SDS011;3114;48.362;10.994;2022-09-01T13:16:30;2.10;;;1.70;;
6163;SDS011;3114;48.362;10.994;2022-09-01T13:18:57;1.80;;;1.70;;
6163;SDS011;3114;48.362;10.994;2022-09-01T13:21:24;1.80;;;1.70;;
6163;SDS011;3114;48.362;10.994;2022-09-01T13:23:51;3.30;;;1.75;;
6163;SDS011;3114;48.362;10.994;2022-09-01T13:26:19;2.22;;;1.98;;
6163;SDS011;3114;48.362;10.994;2022-09-01T13:28:46;1.95;;;1.70;;
6163;SDS011;3114;48.362;10.994;2022-09-01T13:31:14;1.70;;;1.60;;
6163;SDS011;3114;48.362;10.994;2022-09-01T13:33:41;1.60;;;1.50;;
6163;SDS011;3114;48.362;10.994;2022-09-01T13:36:08;1.73;;;1.60;;
6163;SDS011;3114;48.362;10.994;2022-09-01T13:38:34;1.67;;;1.55;;
6163;SDS011;3114;48.362;10.994;2022-09-01T13:41:02;2.13;;;1.50;;
6163;SDS011;3114;48.362;10.994;2022-09-01T13:43:30;2.55;;;1.70;;
6163;SDS011;3114;48.362;10.994;2022-09-01T13:45:59;1.90;;;1.40;;
6163;SDS011;3114;48.362;10.994;2022-09-01T13:48:26;3.30;;;1.80;;
6163;SDS011;3114;48.362;10.994;2022-09-01T13:50:53;4.25;;;1.60;;
6163;SDS011;3114;48.362;10.994;2022-09-01T13:53:20;1.63;;;1.42;;
6163;SDS011;3114;48.362;10.994;2022-09-01T13:55:50;2.83;;;1.70;;
6163;SDS011;3114;48.362;10.994;2022-09-01T13:58:17;1.40;;;1.30;;
6163;SDS011;3114;48.362;10.994;2022-09-01T14:00:46;2.83;;;1.50;;
6163;SDS011;3114;48.362;10.994;2022-09-01T14:03:15;3.78;;;1.45;;
6163;SDS011;3114;48.362;10.994;2022-09-01T14:05:44;1.40;;;1.30;;
6163;SDS011;3114;48.362;10.994;2022-09-01T14:08:13;1.58;;;1.48;;
6163;SDS011;3114;48.362;10.994;2022-09-01T14:10:42;2.83;;;1.70;;
6163;SDS011;3114;48.362;10.994;2022-09-01T14:13:14;1.55;;;1.40;;
6163;SDS011;3114;48.362;10.994;2022-09-01T14:15:42;1.60;;;1.50;;
6163;SDS011;3114;48.362;10.994;2022-09-01T14:18:12;1.60;;;1.40;;
6163;SDS011;3114;48.362;10.994;2022-09-01T14:20:41;4.47;;;1.73;;
6163;SDS011;3114;48.362;10.994;2022-09-01T14:23:12;3.70;;;1.45;;
6163;SDS011;3114;48.362;10.994;2022-09-01T14:25:47;3.75;;;1.60;;
6163;SDS011;3114;48.362;10.994;2022-09-01T14:28:15;2.38;;;1.38;;
6163;SDS011;3114;48.362;10.994;2022-09-01T14:30:42;2.03;;;1.40;;
6163;SDS011;3114;48.362;10.994;2022-09-01T14:33:11;2.47;;;1.35;;
6163;SDS011;3114;48.362;10.994;2022-09-01T14:35:42;3.05;;;1.60;;
6163;SDS011;3114;48.362;10.994;2022-09-01T14:38:11;7.45;;;1.92;;
6163;SDS011;3114;48.362;10.994;2022-09-01T14:40:42;1.40;;;1.30;;
6163;SDS011;3114;48.362;10.994;2022-09-01T14:43:16;4.32;;;1.60;;
6163;SDS011;3114;48.362;10.994;2022-09-01T14:45:43;2.10;;;1.50;;
6163;SDS011;3114;48.362;10.994;2022-09-01T14:48:16;2.05;;;1.55;;
6163;SDS011;3114;48.362;10.994;2022-09-01T14:50:45;1.60;;;1.40;;
6163;SDS011;3114;48.362;10.994;2022-09-01T14:53:15;1.88;;;1.77;;
6163;SDS011;3114;48.362;10.994;2022-09-01T14:55:43;3.10;;;1.58;;
6163;SDS011;3114;48.362;10.994;2022-09-01T14:58:10;1.55;;;1.40;;
6163;SDS011;3114;48.362;10.994;2022-09-01T15:00:37;2.38;;;1.33;;
6163;SDS011;3114;48.362;10.994;2022-09-01T15:03:06;2.17;;;1.40;;
6163;SDS011;3114;48.362;10.994;2022-09-01T15:05:36;1.45;;;1.35;;
6163;SDS011;3114;48.362;10.994;2022-09-01T15:08:04;3.42;;;1.55;;
6163;SDS011;3114;48.362;10.994;2022-09-01T15:10:32;1.40;;;1.30;;
6163;SDS011;3114;48.362;10.994;2022-09-01T15:12:59;1.52;;;1.42;;
6163;SDS011;3114;48.362;10.994;2022-09-01T15:15:27;2.33;;;1.48;;
6163;SDS011;3114;48.362;10.994;2022-09-01T15:17:55;2.05;;;1.40;;
6163;SDS011;3114;48.362;10.994;2022-09-01T15:20:26;4.50;;;1.60;;
6163;SDS011;3114;48.362;10.994;2022-09-01T15:23:15;2.45;;;1.50;;
6163;SDS011;3114;48.362;10.994;2022-09-01T15:25:43;1.60;;;1.35;;
6163;SDS011;3114;48.362;10.994;2022-09-01T15:28:10;1.75;;;1.20;;
6163;SDS011;3114;48.362;10.994;2022-09-01T15:30:38;1.42;;;1.20;;
6163;SDS011;3114;48.362;10.994;2022-09-01T15:33:08;1.30;;;1.20;;
6163;SDS011;3114;48.362;10.994;2022-09-01T15:35:35;13.52;;;12.63;;